createdAt,value
2023-01-19T00:00:16.506Z,8.77
2023-01-19T00:02:53.329Z,8.30
2023-01-19T00:05:23.622Z,9.33
2023-01-19T00:08:16.250Z,9.30
2023-01-19T00:10:49.011Z,8.13
2023-01-19T00:13:18.735Z,9.03
2023-01-19T00:15:51.346Z,8.80
2023-01-19T00:18:23.331Z,7.97
2023-01-19T00:20:52.585Z,8.10
2023-01-19T00:23:23.606Z,8.00
2023-01-19T00:25:56.431Z,7.50
2023-01-19T00:28:26.887Z,8.50
2023-01-19T00:30:57.057Z,8.80
2023-01-19T00:33:31.989Z,8.20
2023-01-19T00:36:01.722Z,8.87
2023-01-19T00:38:32.126Z,8.30
2023-01-19T00:41:02.965Z,8.60
2023-01-19T00:43:32.273Z,8.97
2023-01-19T00:46:05.908Z,8.90
2023-01-19T00:48:36.465Z,7.67
2023-01-19T00:51:34.284Z,8.37
2023-01-19T00:54:08.440Z,7.20
2023-01-19T00:56:40.346Z,8.63
2023-01-19T00:59:13.456Z,9.13
2023-01-19T01:01:45.757Z,10.10
2023-01-19T01:04:17.404Z,8.53
2023-01-19T01:06:46.684Z,9.07
2023-01-19T01:09:16.253Z,8.73
2023-01-19T01:11:45.190Z,9.20
2023-01-19T01:14:13.938Z,8.33
2023-01-19T01:16:42.743Z,8.70
2023-01-19T01:19:10.549Z,8.40
2023-01-19T01:21:38.777Z,7.53
2023-01-19T01:44:37.964Z,10.13
2023-01-19T01:47:07.203Z,8.87
2023-01-19T01:49:36.841Z,8.20
2023-01-19T01:52:05.711Z,8.87
2023-01-19T01:54:34.736Z,8.40
2023-01-19T01:57:14.418Z,9.70
2023-01-19T01:59:59.507Z,8.60
2023-01-19T02:02:56.646Z,9.93
2023-01-19T02:05:51.267Z,10.10
2023-01-19T02:12:05.997Z,10.00
2023-01-19T02:14:46.436Z,9.30
2023-01-19T02:17:29.465Z,8.77
2023-01-19T02:20:19.174Z,7.33
2023-01-19T02:25:53.228Z,8.77
2023-01-19T02:28:21.600Z,8.60
2023-01-19T02:54:54.200Z,8.07
2023-01-19T03:05:57.281Z,8.50
2023-01-19T03:08:34.563Z,9.80
2023-01-19T03:11:06.034Z,7.43
2023-01-19T03:13:45.631Z,8.23
2023-01-19T03:16:20.688Z,7.90
2023-01-19T03:24:01.085Z,7.53
2023-01-19T03:29:36.824Z,7.60
2023-01-19T03:32:20.577Z,8.00
2023-01-19T03:35:09.690Z,8.83
2023-01-19T03:37:44.306Z,7.67
2023-01-19T03:46:11.593Z,8.53
2023-01-19T03:48:45.883Z,8.30
2023-01-19T03:51:15.923Z,8.70
2023-01-19T03:53:59.731Z,7.67
2023-01-19T03:56:32.986Z,8.00
2023-01-19T03:59:41.927Z,7.53
2023-01-19T04:05:16.621Z,8.57
2023-01-19T04:10:43.022Z,8.43
2023-01-19T04:13:15.145Z,8.57
2023-01-19T04:16:12.011Z,9.07
2023-01-19T04:18:44.210Z,8.97
2023-01-19T04:21:19.887Z,8.40
2023-01-19T04:23:53.922Z,10.10
2023-01-19T04:26:37.990Z,9.10
2023-01-19T04:29:12.360Z,9.37
2023-01-19T04:31:58.645Z,8.50
2023-01-19T04:34:46.005Z,8.83
2023-01-19T04:40:07.041Z,9.70
2023-01-19T04:43:01.389Z,9.00
2023-01-19T04:45:37.077Z,9.00
2023-01-19T04:48:23.287Z,8.00
2023-01-19T04:51:01.610Z,8.40
2023-01-19T04:56:56.665Z,9.63
2023-01-19T04:59:36.519Z,7.70
2023-01-19T05:16:50.161Z,8.37
2023-01-19T05:19:46.911Z,9.03
2023-01-19T05:22:38.363Z,9.23
2023-01-19T05:25:44.789Z,8.00
2023-01-19T05:28:18.464Z,9.50
2023-01-19T05:31:04.651Z,9.10
2023-01-19T05:33:53.697Z,8.47
2023-01-19T05:36:28.146Z,10.30
2023-01-19T05:39:47.680Z,8.73
2023-01-19T05:45:29.406Z,9.77
2023-01-19T05:48:37.794Z,9.63
2023-01-19T05:51:16.282Z,9.67
2023-01-19T05:57:42.223Z,9.27
2023-01-19T06:00:20.710Z,9.57
2023-01-19T06:03:03.655Z,9.73
2023-01-19T06:05:49.115Z,8.40
2023-01-19T06:08:23.758Z,8.27
2023-01-19T06:11:18.868Z,9.03
2023-01-19T06:16:46.582Z,6.90
2023-01-19T06:22:23.984Z,6.70
2023-01-19T06:25:00.104Z,6.53
2023-01-19T06:28:09.591Z,8.17
2023-01-19T06:31:15.601Z,6.83
2023-01-19T06:34:15.249Z,7.73
2023-01-19T06:37:02.745Z,7.07
2023-01-19T06:42:47.805Z,9.20
2023-01-19T06:48:42.319Z,7.80
2023-01-19T06:51:29.164Z,9.30
2023-01-19T06:54:16.300Z,9.57
2023-01-19T06:57:19.513Z,8.03
2023-01-19T06:59:54.036Z,7.90
2023-01-19T07:03:15.036Z,7.83
2023-01-19T07:08:47.797Z,8.33
2023-01-19T07:11:37.752Z,8.30
2023-01-19T07:14:46.094Z,7.70
2023-01-19T07:17:36.845Z,7.77
2023-01-19T07:20:21.885Z,7.57
2023-01-19T07:23:02.783Z,7.90
2023-01-19T07:25:57.454Z,7.50
2023-01-19T07:28:55.747Z,7.30
2023-01-19T07:32:15.715Z,7.57
2023-01-19T07:34:48.620Z,9.80
2023-01-19T07:37:38.431Z,8.67
2023-01-19T07:40:22.126Z,9.10
2023-01-19T07:42:54.757Z,9.87
2023-01-19T10:41:24.764Z,4.13
2023-01-19T10:44:02.254Z,5.07
2023-01-19T10:46:41.046Z,4.70
2023-01-19T10:49:27.598Z,4.57
2023-01-19T10:51:57.737Z,4.77
2023-01-19T10:54:28.333Z,4.97
2023-01-19T10:57:00.875Z,4.40
2023-01-19T10:59:33.712Z,4.67
2023-01-19T11:02:19.166Z,4.97
2023-01-19T11:04:50.453Z,3.93
2023-01-19T11:07:21.912Z,5.30
2023-01-19T11:17:49.371Z,4.50
2023-01-19T11:20:24.366Z,4.70
2023-01-19T11:23:07.479Z,4.20
2023-01-19T11:49:01.596Z,5.53
2023-01-19T11:51:37.433Z,5.43
2023-01-19T11:54:23.720Z,4.03
2023-01-19T11:56:56.365Z,4.07
2023-01-19T11:59:36.211Z,4.70
2023-01-19T12:02:22.470Z,4.10
2023-01-19T12:04:57.518Z,4.13
2023-01-19T12:07:39.096Z,3.50
2023-01-19T12:10:25.005Z,4.40
2023-01-19T12:12:57.416Z,4.03
2023-01-19T12:15:34.585Z,3.67
2023-01-19T12:18:05.042Z,4.30
2023-01-19T12:20:39.563Z,4.30
2023-01-19T12:23:28.031Z,3.67
2023-01-19T12:26:13.811Z,4.00
2023-01-19T12:28:47.478Z,4.10
2023-01-19T12:43:21.291Z,4.03
2023-01-19T12:45:53.468Z,3.80
2023-01-19T12:48:34.955Z,3.30
2023-01-19T12:51:28.150Z,3.33
2023-01-19T12:54:00.908Z,3.57
2023-01-19T12:59:29.827Z,3.67
2023-01-19T13:02:49.309Z,3.80
2023-01-19T13:05:40.396Z,3.10
2023-01-19T13:08:20.138Z,3.10
2023-01-19T13:11:24.888Z,4.07
2023-01-19T13:45:58.382Z,5.17
2023-01-19T13:48:26.966Z,5.30
2023-01-19T13:51:00.807Z,5.20
2023-01-19T13:57:59.410Z,5.80
2023-01-19T14:03:43.312Z,6.93
2023-01-19T14:07:07.427Z,5.87
2023-01-19T14:17:19.739Z,5.13
2023-01-19T14:23:59.788Z,5.40
2023-01-19T14:27:35.787Z,5.43
2023-01-19T14:30:39.711Z,5.43
2023-01-19T14:33:47.496Z,5.83
2023-01-19T14:49:50.145Z,5.73
2023-01-19T14:52:54.411Z,4.83
2023-01-19T14:55:40.821Z,4.83
2023-01-19T14:58:12.288Z,4.63
2023-01-19T15:01:13.496Z,4.90
2023-01-19T15:04:09.435Z,4.70
2023-01-19T15:10:10.181Z,5.00
2023-01-19T15:12:44.299Z,3.87
2023-01-19T15:15:23.632Z,4.60
2023-01-19T15:21:07.142Z,4.80
2023-01-19T15:23:42.938Z,5.47
2023-01-19T15:26:25.171Z,4.30
2023-01-19T15:29:01.647Z,5.60
2023-01-19T15:31:47.774Z,5.13
2023-01-19T15:34:46.038Z,5.20
2023-01-19T15:37:30.089Z,5.17
2023-01-19T15:40:19.001Z,4.53
2023-01-19T15:55:47.009Z,4.80
2023-01-19T15:58:24.481Z,4.70
2023-01-19T16:01:31.810Z,5.10
2023-01-19T16:04:20.562Z,5.30
2023-01-19T16:07:10.857Z,4.97
2023-01-19T16:09:52.363Z,5.20
2023-01-19T16:12:29.744Z,4.93
2023-01-19T16:15:08.160Z,4.80
2023-01-19T16:18:02.588Z,5.60
2023-01-19T16:20:39.520Z,9.70
2023-01-19T16:27:39.265Z,12.00
2023-01-19T17:12:17.684Z,5.50
2023-01-19T17:18:46.100Z,5.77
2023-01-19T19:46:16.250Z,8.77
2023-01-19T19:48:48.311Z,9.70
2023-01-19T19:51:25.783Z,10.67
2023-01-19T19:53:57.687Z,11.17
2023-01-19T19:56:31.279Z,11.20
2023-01-19T19:59:01.310Z,10.40
2023-01-19T20:01:33.793Z,11.00
2023-01-19T20:04:06.863Z,10.27
2023-01-19T20:06:39.846Z,14.80
2023-01-19T20:09:14.078Z,16.20
2023-01-19T20:11:49.029Z,14.90
2023-01-19T20:14:17.523Z,12.00
2023-01-19T20:16:47.172Z,10.90
2023-01-19T20:19:31.151Z,10.50
2023-01-19T20:22:01.365Z,10.60
2023-01-19T20:24:29.155Z,10.63
2023-01-19T20:26:57.503Z,8.80
2023-01-19T20:29:26.258Z,9.50
2023-01-19T20:31:56.412Z,10.70
2023-01-19T20:34:30.415Z,12.80
2023-01-19T20:37:00.706Z,10.60
2023-01-19T20:39:34.224Z,9.50
2023-01-19T20:42:05.668Z,10.37
2023-01-19T20:44:33.687Z,10.40
2023-01-19T21:25:43.043Z,8.53
2023-01-19T21:28:11.785Z,8.60
2023-01-19T21:30:48.156Z,8.80
2023-01-19T21:33:26.057Z,8.10
2023-01-19T21:36:01.144Z,9.10
2023-01-19T21:38:33.561Z,9.33
2023-01-19T21:41:13.431Z,8.33
2023-01-19T21:43:43.801Z,7.77
2023-01-19T21:46:14.208Z,8.80
2023-01-19T21:48:43.629Z,7.10
2023-01-19T21:51:18.553Z,9.17
2023-01-19T21:53:53.756Z,7.80
2023-01-19T21:56:24.362Z,7.27
2023-01-19T21:58:52.996Z,8.20
2023-01-19T22:01:23.242Z,8.80
2023-01-19T22:03:58.337Z,8.17
2023-01-19T22:06:29.502Z,7.50
2023-01-19T22:08:58.504Z,7.40
2023-01-19T22:11:29.383Z,7.20
2023-01-19T22:13:59.753Z,6.80
2023-01-19T22:16:29.763Z,7.73
2023-01-19T22:19:02.774Z,6.67
2023-01-19T22:21:36.666Z,6.60
2023-01-19T22:24:09.866Z,8.60
2023-01-19T22:26:42.359Z,6.40
2023-01-19T22:29:13.520Z,7.03
2023-01-19T22:31:44.319Z,7.23
2023-01-19T22:34:14.753Z,7.60
2023-01-19T22:36:43.189Z,9.30
2023-01-19T22:39:13.849Z,9.97
2023-01-19T22:41:45.326Z,9.37
2023-01-19T22:44:15.670Z,7.93
2023-01-19T22:46:45.000Z,7.97
2023-01-19T22:49:15.847Z,8.73
2023-01-19T22:51:45.185Z,8.20
2023-01-19T22:54:13.811Z,8.87
2023-01-19T22:56:44.596Z,8.60
2023-01-19T22:59:13.057Z,7.63
2023-01-19T23:01:49.771Z,9.53
2023-01-19T23:04:19.836Z,9.17
2023-01-19T23:06:52.731Z,7.73
2023-01-19T23:09:23.795Z,8.33
2023-01-19T23:11:58.816Z,7.73
2023-01-19T23:14:30.905Z,8.53
2023-01-19T23:17:03.753Z,10.13
2023-01-19T23:19:37.488Z,8.77
2023-01-19T23:22:06.474Z,8.70
2023-01-19T23:24:37.486Z,7.63
2023-01-19T23:27:12.290Z,9.10
2023-01-19T23:29:40.702Z,9.17
2023-01-19T23:32:12.865Z,8.90
2023-01-19T23:34:41.559Z,8.57
2023-01-19T23:37:10.171Z,9.43
2023-01-19T23:39:39.175Z,9.70
2023-01-19T23:42:09.653Z,8.43
2023-01-19T23:44:42.675Z,9.33
2023-01-19T23:47:11.737Z,10.10
2023-01-19T23:49:40.704Z,8.50
2023-01-19T23:52:09.455Z,8.70
2023-01-19T23:54:38.009Z,8.77
2023-01-19T23:57:11.036Z,9.07
2023-01-19T23:59:41.970Z,9.00
